Terminal Aerodrome Forecast
Issued by NWS

Home | Current Version | Previous Version | Text Only | Print | Product List | Glossary On
Versions: 1 2 3 4 5 6 7 8 9 10 11 12 13 14 15 16 17 18 19 20 21
695
FTUS43 KJKL 210535
TAFSME
TAF
KSME 210535Z 2106/2206 VRB03KT 4SM BR SKC
     FM210700 00000KT 2SM BR FEW002
     FM210800 00000KT 1/2SM FG BKN002
     FM211300 VRB03KT P6SM SKC
     FM211700 VRB03KT P6SM SCT040=

USA.gov is the U.S. government's official web portal to all federal, state and local government web resources and services.